マレ の空港の天気 - METARとTAF

マレ国際空港 ( VRMM / MLE ) - モルディブ Hulhule Island, North Male Atoll
飛行場実況気象(Metar)
観測時間04/27 11:00 +05 (04/27 06:00 UTC)
風向・風速西 4m/s
視程10km以上
天気現象
全天の4割程度の雲 雲底高度 550m
全天の4割程度の雲 雲底高度 8530m
気温32℃
湿度75%
気圧1012hPa
METARVRMM 270600Z 27007KT 9999 SCT018 SCT280 32/27 Q1012 NOSIG
過去の天気等 Google飛行場航空写真 Wunderground天気予報

過去48時間のMETAR

飛行場予報(TAF)
発表時間: 4/27 10:00 +05 (4/27 05:00 UTC)
予報対象時間: 27日11時 +05 ~ 28日17時 +05
風向・風速西 4m/s
視程10km以上
少しの雲 雲底高度 550m
27日14時 +05 ~ 27日20時 +05 に一時的に
視程5,000m
天気現象弱い雷雨
少しの積乱雲 雲底高度 520m
TAF VRMM 270500Z 2706/2812 28008KT 9999 FEW018
TEMPO 2709/2715 5000 -TSRA FEW017CB